Flight Track Log - Related Links

Times and Time Zones

All times are in EDT time to prevent confusion due to time zone crossing. See the AVN21 flight status page for this flight to view local times or setup timezone preferences in your user account.

Time Position Orientation Groundspeed Altitude Reporting Facility
EDT Latitude Longitude Course Direction KTS MPH feet Rate Location/Type
Sun 07:03:11 AM -27.3961 153.1221 75° East 105 121  Level FlightAware ADS-B
Sun 07:03:41 AM -27.3778 153.1325 27° Northeast 159 183 200 1,059 Climbing FlightAware ADS-B
Sun 07:04:02 AM -27.3644 153.1403 27° Northeast 159 183 900 1,935 Climbing FlightAware ADS-B
Sun 07:04:12 AM -27.3585 153.1452 36° Northeast 165 190 1,200 1,400 Climbing FlightAware ADS-B
Sun 07:04:32 AM -27.3473 153.1570 43° Northeast 184 212 1,600 1,200 Climbing FlightAware ADS-B
Sun 07:04:52 AM -27.3338 153.1710 43° Northeast 204 235 2,000 1,800 Climbing FlightAware ADS-B
Sun 07:05:12 AM -27.3201 153.1873 47° Northeast 208 239 2,800 2,483 Climbing FlightAware ADS-B
Sun 07:05:21 AM -27.3153 153.1964 59° Northeast 215 247 3,200 1,800 Climbing FlightAware ADS-B
Sun 07:05:42 AM -27.3077 153.2187 69° East 237 273 3,700 1,317 Climbing FlightAware ADS-B
Sun 07:06:02 AM -27.3020 153.2419 75° East 261 300 4,100 1,350 Climbing FlightAware ADS-B
Sun 07:06:22 AM -27.2941 153.2712 73° East 281 323 4,600 1,231 Climbing FlightAware ADS-B
Sun 07:06:41 AM -27.2859 153.3002 72° East 304 350 4,900 1,200 Climbing FlightAware ADS-B
Sun 07:07:02 AM -27.2770 153.3314 72° East 319 367 5,400 1,756 Climbing FlightAware ADS-B
Sun 07:07:22 AM -27.2678 153.3630 72° East 329 379 6,100 1,950 Climbing FlightAware ADS-B
Sun 07:07:42 AM -27.2589 153.3940 72° East 339 390 6,700 2,100 Climbing FlightAware ADS-B
Sun 07:08:02 AM -27.2486 153.4307 72° East 346 398 7,500 2,462 Climbing FlightAware ADS-B
Sun 07:08:21 AM -27.2392 153.4640 72° East 350 403 8,300 2,700 Climbing FlightAware ADS-B
Sun 07:08:42 AM -27.2295 153.4978 72° East 349 402 9,300 3,176 Climbing FlightAware ADS-B
Sun 07:09:12 AM -27.2116 153.5495 69° East 344 396 11,000 3,257 Climbing FlightAware ADS-B
Sun 07:09:17 AM -27.2078 153.5574 61° Northeast 345 397 11,200 2,400 Climbing FlightAware ADS-B
Sun 07:09:47 AM -27.1805 153.6048 57° Northeast 356 410 12,400 2,308 Climbing FlightAware ADS-B
Sun 07:10:22 AM -27.1482 153.6604 57° Northeast 379 436 13,700 2,215 Climbing FlightAware ADS-B
Sun 07:10:52 AM -27.1220 153.7057 57° Northeast 395 455 14,800 2,400 Climbing FlightAware ADS-B
Sun 07:11:27 AM -27.0826 153.7737 57° Northeast 411 473 16,300 2,545 Climbing FlightAware ADS-B
Sun 07:11:58 AM -27.0506 153.8290 57° Northeast 419 482 17,600 2,852 Climbing FlightAware ADS-B
Sun 07:12:28 AM -27.0190 153.8834 57° Northeast 416 479 19,200 2,719 Climbing FlightAware ADS-B
Sun 07:13:02 AM -26.9830 153.9451 57° Northeast 424 488 20,500 2,250 Climbing FlightAware ADS-B
Sun 07:13:32 AM -26.9526 153.9971 57° Northeast 434 499 21,600 2,100 Climbing FlightAware ADS-B
Sun 07:14:02 AM -26.9170 154.0580 57° Northeast 443 510 22,600 1,800 Climbing FlightAware ADS-B
Sun 07:14:32 AM -26.8828 154.1163 57° Northeast 457 526 23,400 1,714 Climbing FlightAware ADS-B
Sun 07:15:12 AM -26.8356 154.1969 57° Northeast 469 540 24,600 1,714 Climbing FlightAware ADS-B
Sun 07:15:42 AM -26.7998 154.2580 57° Northeast 477 549 25,400 1,600 Climbing FlightAware ADS-B
Sun 07:16:12 AM -26.7634 154.3199 57° Northeast 485 558 26,200 1,800 Climbing FlightAware ADS-B
Sun 07:16:42 AM -26.7274 154.3813 57° Northeast 485 558 27,200 1,700 Climbing FlightAware ADS-B
Sun 07:17:12 AM -26.6893 154.4454 56° Northeast 494 568 27,900 1,100 Climbing FlightAware ADS-B
Sun 07:17:42 AM -26.6497 154.5120 56° Northeast 509 586 28,300 957 Climbing FlightAware ADS-B
Sun 07:18:21 AM -26.5977 154.5999 56° Northeast 522 601 29,000 1,200 Climbing FlightAware ADS-B
Sun 07:18:52 AM -26.5578 154.6676 57° Northeast 527 606 29,700 1,377 Climbing FlightAware ADS-B
Sun 07:19:22 AM -26.5166 154.7374 57° Northeast 531 611 30,400 1,114 Climbing FlightAware ADS-B
Sun 07:20:02 AM -26.4636 154.8268 57° Northeast 542 624 31,000 1,250 Climbing FlightAware ADS-B
Sun 07:20:34 AM -26.4180 154.9054 57° Northeast 539 620 31,900 1,385 Climbing Aus ATC (RADAR)
Sun 07:20:41 AM -26.4083 154.9197 57° Northeast 545 627 31,900 789 Level FlightAware ADS-B
Sun 07:21:12 AM -26.3652 154.9922 56° Northeast 550 633 32,400 1,355 Climbing FlightAware ADS-B
Sun 07:21:43 AM -26.3192 155.0694 56° Northeast 546 628 33,300 1,200 Climbing Aus ATC (RADAR)
Sun 07:21:52 AM -26.3114 155.0820 56° Northeast 552 635 33,200 1,000 Descending FlightAware ADS-B
Sun 07:22:31 AM -26.2530 155.1794 56° Northeast 550 633 34,100 1,371 Climbing FlightAware ADS-B
Sun 07:23:02 AM -26.2097 155.2514 56° Northeast 547 629 34,800 1,377 Climbing FlightAware ADS-B
Sun 07:23:32 AM -26.1670 155.3225 56° Northeast 542 624 35,500 1,300 Climbing FlightAware ADS-B
Sun 07:24:02 AM -26.1250 155.3921 56° Northeast 541 623 36,100 1,029 Climbing FlightAware ADS-B
Sun 07:24:42 AM -26.0698 155.4844 56° Northeast 541 623 36,700 771 Climbing FlightAware ADS-B
Sun 07:25:12 AM -26.0289 155.5528 56° Northeast 542 624 37,000 395 Climbing FlightAware ADS-B
Sun 07:25:58 AM -25.9637 155.6613 56° Northeast 531 611 37,200  Climbing Aus ATC (RADAR)
Sun 07:26:02 AM -25.9585 155.6693 56° Northeast 540 621 37,000 -293 Descending FlightAware ADS-B
Sun 07:26:39 AM -25.9150 155.7410 56° Northeast 539 620 37,000  Level FlightAware ADS-B
Sun 07:27:18 AM -25.8531 155.8425 56° Northeast 538 619 37,000  Level FlightAware ADS-B
Sun 07:27:51 AM -25.8067 155.9187 56° Northeast 537 618 37,000 185 Level FlightAware ADS-B
Sun 07:28:23 AM -25.7615 155.9913 56° Northeast 528 608 37,200  Climbing Aus ATC (RADAR)
Sun 07:28:41 AM -25.7393 156.0292 56° Northeast 537 618 37,000 -226 Descending FlightAware ADS-B
Sun 07:29:16 AM -25.6990 156.0960 56° Northeast 536 617 37,000 255 Level FlightAware ADS-B
Sun 07:29:28 AM -25.6717 156.1402 56° Northeast 526 605 37,200  Climbing Aus ATC (RADAR)
Sun 07:29:52 AM -25.6560 156.1660 56° Northeast 536 617 37,000 -200 Descending FlightAware ADS-B
Sun 07:30:28 AM -25.6140 156.2350 56° Northeast 536 617 37,000  Level FlightAware ADS-B
Sun 07:31:05 AM -25.5700 156.3070 56° Northeast 536 617 37,000  Level FlightAware ADS-B
Sun 07:31:29 AM -25.5420 156.3540 57° Northeast 536 617 37,000  Level FlightAware ADS-B
Sun 07:32:03 AM -25.4662 156.4983 57° Northeast 526 605 37,000  Level Aus ATC (RADAR)
Sun 07:32:17 AM -25.4850 156.4460 57° Northeast 536 617 37,000  Level FlightAware ADS-B
Sun 07:32:41 AM -25.4570 156.4930 57° Northeast 536 617 37,000  Level FlightAware ADS-B
Sun 07:33:41 AM -25.3860 156.6090 57° Northeast 536 617 37,000  Level FlightAware ADS-B
Sun 07:33:47 AM -25.3230 156.7351 57° Northeast 521 600 37,000  Level Aus ATC (RADAR)
Sun 07:34:22 AM -25.2722 156.8107 57° Northeast 520 598 37,000  Level Aus ATC (RADAR)
Sun 07:34:29 AM -25.3300 156.7020 57° Northeast 536 617 37,000  Level FlightAware ADS-B
Sun 07:35:02 AM -25.2220 156.9037 57° Northeast 519 597 37,000  Level Aus ATC (RADAR)
Sun 07:35:17 AM -25.2730 156.7950 57° Northeast 536 617 37,000  Level FlightAware ADS-B
Sun 07:36:05 AM -25.2170 156.8870 57° Northeast 536 617 37,000  Level FlightAware ADS-B
Sun 07:36:07 AM -25.1309 157.0458 57° Northeast 516 594 37,000  Level Aus ATC (RADAR)
Sun 07:36:29 AM -25.1880 156.9340 57° Northeast 536 617 37,000  Level FlightAware ADS-B
Sun 07:36:42 AM -25.0852 157.1250 57° Northeast 515 593 37,000  Level Aus ATC (RADAR)
Sun 07:37:06 AM -25.1450 157.0050 56° Northeast 536 617 37,000  Level FlightAware ADS-B
Sun 07:37:52 AM -24.9963 157.2849 56° Northeast 519 597 37,000  Level Aus ATC (RADAR)
Sun 07:37:55 AM -25.0870 157.1000 56° Northeast 536 617 37,000  Level FlightAware ADS-B
Sun 07:38:31 AM -25.0450 157.1690 56° Northeast 536 617 37,000  Level FlightAware ADS-B
Sun 07:38:44 AM -25.0290 157.1940 55° Northeast 536 617 37,000  Level FlightAware ADS-B
Sun 07:41:00 AM -24.8714 157.4620 57° Northeast  Level FlightAware Approximate
Sun 07:41:52 AM -24.6855 157.8017 240° Southwest 37,000  Level Aus ATC (Calculated)
Sun 07:42:00 AM -24.8017 157.5800 57° Northeast  Level FlightAware Approximate
Sun 07:42:41 AM -24.6204 157.9095 56° Northeast 37,000  Level Aus ATC (Calculated)
Sun 07:44:00 AM -24.5273 158.0635 56° Northeast  Level FlightAware Approximate
Sun 07:45:00 AM -24.4564 158.1803 56° Northeast  Level FlightAware Approximate
Sun 07:46:00 AM -24.3854 158.2970 56° Northeast  Level FlightAware Approximate
Sun 07:47:00 AM -24.3144 158.4135 56° Northeast  Level FlightAware Approximate
Sun 07:48:00 AM -24.2432 158.5300 56° Northeast  Level FlightAware Approximate
Sun 07:49:00 AM -24.1720 158.6463 56° Northeast  Level FlightAware Approximate
Sun 07:50:00 AM -24.1007 158.7625 56° Northeast  Level FlightAware Approximate
Sun 07:51:00 AM -24.0293 158.8785 56° Northeast  Level FlightAware Approximate
Sun 07:52:00 AM -23.9578 158.9944 56° Northeast  Level FlightAware Approximate
Sun 07:53:00 AM -23.8862 159.1102 56° Northeast  Level FlightAware Approximate
Sun 07:54:00 AM -23.8146 159.2258 56° Northeast  Level FlightAware Approximate
Sun 07:55:00 AM -23.7428 159.3414 56° Northeast  Level FlightAware Approximate
Sun 07:55:00 AM -23.6258 159.5265 56° Northeast 37,000  Level Aus ATC (Calculated)
Sun 07:55:39 AM -23.5568 159.6367 235° Southwest 37,000  Level Aus ATC (Calculated)
Sun 07:57:00 AM -23.6555 159.4823 235° Southwest  Level FlightAware Approximate
Sun 07:58:00 AM -23.5824 159.5968 55° Northeast  Level FlightAware Approximate
Sun 07:59:00 AM -23.6555 159.4823 235° Southwest  Level FlightAware Approximate
Sun 08:00:00 AM -23.6269 159.5275 56° Northeast  Level FlightAware Approximate
Sun 08:01:00 AM -23.5548 159.6426 56° Northeast  Level FlightAware Approximate
Sun 08:02:00 AM -23.4826 159.7576 56° Northeast  Level FlightAware Approximate
Sun 08:03:00 AM -23.4104 159.8724 56° Northeast  Level FlightAware Approximate
Sun 08:04:00 AM -23.3380 159.9871 56° Northeast  Level FlightAware Approximate
Sun 08:05:00 AM -23.2656 160.1017 55° Northeast  Level FlightAware Approximate
Sun 08:05:40 AM -22.7490 160.9103 235° Southwest 37,000  Level Aus ATC (Calculated)
Sun 08:06:00 AM -23.1931 160.2162 55° Northeast  Level FlightAware Approximate
Sun 08:07:00 AM -22.6516 161.0618 55° Northeast  Level FlightAware Approximate
Sun 08:08:00 AM -22.5784 161.1752 55° Northeast  Level FlightAware Approximate
Sun 08:08:00 AM -22.5370 161.2394 55° Northeast 37,000  Level Aus ATC (Calculated)
Sun 08:09:00 AM -22.4637 161.3527 55° Northeast  Level FlightAware Approximate
Sun 08:10:00 AM -22.3903 161.4659 55° Northeast  Level FlightAware Approximate
Sun 08:11:00 AM -22.3169 161.5789 55° Northeast  Level FlightAware Approximate
Sun 08:12:00 AM -22.2434 161.6919 55° Northeast  Level FlightAware Approximate
Sun 08:13:00 AM -22.1698 161.8047 55° Northeast  Level FlightAware Approximate
Sun 08:14:00 AM -22.0961 161.9174 55° Northeast  Level FlightAware Approximate
Sun 08:15:00 AM -22.0224 162.0300 55° Northeast  Level FlightAware Approximate
Sun 08:16:00 AM -21.9485 162.1424 55° Northeast  Level FlightAware Approximate
Sun 08:17:00 AM -21.8746 162.2547 55° Northeast  Level FlightAware Approximate
Sun 08:18:00 AM -21.8006 162.3670 55° Northeast  Level FlightAware Approximate
Sun 08:18:00 AM -21.7076 162.5077 55° Northeast 37,000  Level Aus ATC (Calculated)
Sun 08:19:00 AM -21.6335 162.6197 55° Northeast  Level FlightAware Approximate
Sun 08:20:00 AM -21.5593 162.7315 55° Northeast  Level FlightAware Approximate
Sun 08:21:00 AM -21.4850 162.8432 54° Northeast  Level FlightAware Approximate
Sun 08:22:00 AM -21.4106 162.9549 54° Northeast  Level FlightAware Approximate
Sun 08:23:00 AM -21.3361 163.0663 54° Northeast  Level FlightAware Approximate
Sun 08:24:00 AM -21.4106 162.9549 234° Southwest  Level FlightAware Approximate
Sun 08:25:00 AM -21.3361 163.0663 54° Northeast  Level FlightAware Approximate
Sun 08:26:00 AM -21.4106 162.9549 234° Southwest  Level FlightAware Approximate
Sun 08:27:00 AM -21.3361 163.0663 54° Northeast  Level FlightAware Approximate
Sun 08:28:00 AM -21.4106 162.9549 234° Southwest  Level FlightAware Approximate
Sun 08:29:00 AM -21.3361 163.0663 54° Northeast  Level FlightAware Approximate
Sun 08:30:00 AM -21.4106 162.9549 234° Southwest  Level FlightAware Approximate
Sun 08:31:00 AM -21.3366 163.0667 54° Northeast  Level Estimated
Sun 08:32:00 AM -21.2614 163.1775 54° Northeast  Level FlightAware Approximate
Sun 08:33:00 AM -21.1860 163.2882 54° Northeast  Level FlightAware Approximate
Sun 08:34:00 AM -21.1105 163.3988 54° Northeast  Level FlightAware Approximate
Sun 08:35:00 AM -21.0350 163.5092 54° Northeast  Level FlightAware Approximate
Sun 08:36:00 AM -20.9594 163.6196 54° Northeast  Level FlightAware Approximate
Sun 08:37:00 AM -20.8838 163.7298 54° Northeast  Level FlightAware Approximate
Sun 08:38:00 AM -20.8081 163.8399 54° Northeast  Level FlightAware Approximate
Sun 08:39:00 AM -20.7323 163.9499 54° Northeast  Level FlightAware Approximate
Sun 08:40:00 AM -20.6564 164.0598 54° Northeast  Level FlightAware Approximate
Sun 08:41:00 AM -20.5805 164.1696 54° Northeast  Level FlightAware Approximate
Sun 08:42:00 AM -20.5045 164.2793 54° Northeast  Level FlightAware Approximate
Sun 08:43:00 AM -20.4284 164.3888 53° Northeast  Level FlightAware Approximate
Sun 08:44:00 AM -20.3523 164.4983 53° Northeast  Level FlightAware Approximate
Sun 08:45:00 AM -20.2761 164.6076 53° Northeast  Level FlightAware Approximate
Sun 08:46:00 AM -20.1998 164.7169 53° Northeast  Level FlightAware Approximate
Sun 08:47:00 AM -20.1235 164.8260 53° Northeast  Level FlightAware Approximate
Sun 08:48:00 AM -20.0471 164.9350 53° Northeast  Level FlightAware Approximate
Sun 08:49:00 AM -19.9706 165.0440 53° Northeast  Level FlightAware Approximate
Sun 08:50:00 AM -19.8940 165.1528 53° Northeast  Level FlightAware Approximate
Sun 08:51:00 AM -19.8174 165.2615 53° Northeast  Level FlightAware Approximate
Sun 08:52:00 AM -19.7407 165.3701 53° Northeast  Level FlightAware Approximate
Sun 08:53:00 AM -19.6640 165.4786 53° Northeast  Level FlightAware Approximate
Sun 08:54:00 AM -19.5872 165.5870 53° Northeast  Level FlightAware Approximate
Sun 08:55:00 AM -19.5103 165.6953 53° Northeast  Level FlightAware Approximate
Sun 08:56:00 AM -19.4334 165.8035 53° Northeast  Level FlightAware Approximate
Sun 08:57:00 AM -19.3564 165.9116 53° Northeast  Level FlightAware Approximate
Sun 08:58:00 AM -19.2793 166.0196 53° Northeast  Level FlightAware Approximate
Sun 08:59:00 AM -19.2022 166.1275 53° Northeast  Level FlightAware Approximate
Sun 09:00:00 AM -19.1250 166.2352 53° Northeast  Level FlightAware Approximate
Sun 09:01:00 AM -19.0478 166.3429 53° Northeast  Level FlightAware Approximate
Sun 09:02:00 AM -18.9704 166.4505 53° Northeast  Level FlightAware Approximate
Sun 09:03:00 AM -18.8931 166.5580 53° Northeast  Level FlightAware Approximate
Sun 09:04:00 AM -18.8156 166.6654 53° Northeast  Level FlightAware Approximate
Sun 09:05:00 AM -18.7381 166.7727 53° Northeast  Level FlightAware Approximate
Sun 09:06:00 AM -18.6606 166.8799 53° Northeast  Level FlightAware Approximate
Sun 09:07:00 AM -18.5830 166.9870 53° Northeast  Level FlightAware Approximate
Sun 09:08:00 AM -18.5053 167.0940 53° Northeast  Level FlightAware Approximate
Sun 09:09:00 AM -18.4275 167.2009 53° Northeast  Level FlightAware Approximate
Sun 09:10:00 AM -18.3497 167.3077 53° Northeast  Level FlightAware Approximate
Sun 09:11:00 AM -18.2719 167.4144 52° Northeast  Level FlightAware Approximate
Sun 09:12:00 AM -18.1940 167.5210 52° Northeast  Level FlightAware Approximate
Sun 09:13:00 AM -18.1160 167.6275 52° Northeast  Level FlightAware Approximate
Sun 09:14:00 AM -18.0379 167.7339 52° Northeast  Level FlightAware Approximate
Sun 09:15:00 AM -17.9598 167.8402 52° Northeast  Level FlightAware Approximate
Sun 09:16:00 AM -17.8817 167.9465 52° Northeast  Level FlightAware Approximate
Sun 09:17:00 AM -17.8035 168.0526 52° Northeast  Level FlightAware Approximate
Sun 09:18:00 AM -17.7252 168.1586 52° Northeast  Level FlightAware Approximate
Sun 09:19:00 AM -17.6621 168.2439 54° Northeast  Level FlightAware Approximate
Sun 09:20:00 AM -17.6993 168.3198 54° Northeast  Level Estimated
Sun 09:21:00 AM -17.6993 168.3198 54° Northeast  Level Estimated
Sun 09:22:00 AM -17.6993 168.3198 54° Northeast  Level Estimated
Sun 09:23:00 AM -17.6993 168.3198 54° Northeast  Level Estimated
Sun 09:24:00 AM -17.6993 168.3198 54° Northeast  Level Estimated
Sun 09:25:00 AM -17.6993 168.3198 54° Northeast  Level Estimated
Sun 09:26:00 AM -17.6993 168.3198 54° Northeast  Level Estimated
Sun 09:27:00 AM -17.6993 168.3198 54° Northeast  Level Estimated
Sun 09:28:00 AM -17.6993 168.3198 54° Northeast  Level Estimated

Login

Don't have an account? Register now (free) for customized features, flight alerts, and more!